sensor_id;sensor_type;location;lat;lon;timestamp;pressure;altitude;pressure_sealevel;temperature;humidity
42385;BME280;28042;43.986;22.860;2023-03-13T00:00:14;101740.50;;;-0.05;97.45
42385;BME280;28042;43.986;22.860;2023-03-13T00:02:41;101671.00;;;-0.48;97.71
42385;BME280;28042;43.986;22.860;2023-03-13T00:05:12;101726.00;;;-0.15;97.34
42385;BME280;28042;43.986;22.860;2023-03-13T00:07:38;101669.50;;;-0.52;97.46
42385;BME280;28042;43.986;22.860;2023-03-13T00:10:04;101679.78;;;-0.46;97.35
42385;BME280;28042;43.986;22.860;2023-03-13T00:12:30;101752.19;;;-0.06;97.70
42385;BME280;28042;43.986;22.860;2023-03-13T00:14:55;101705.97;;;-0.37;97.61
42385;BME280;28042;43.986;22.860;2023-03-13T00:17:20;101751.63;;;-0.11;98.33
42385;BME280;28042;43.986;22.860;2023-03-13T00:19:46;101744.66;;;-0.14;98.51
42385;BME280;28042;43.986;22.860;2023-03-13T00:22:11;101672.25;;;-0.53;98.63
42385;BME280;28042;43.986;22.860;2023-03-13T00:24:37;101754.31;;;-0.11;98.88
42385;BME280;28042;43.986;22.860;2023-03-13T00:27:02;101686.13;;;-0.47;98.18
42385;BME280;28042;43.986;22.860;2023-03-13T00:29:32;101696.13;;;-0.36;97.79
42385;BME280;28042;43.986;22.860;2023-03-13T00:31:58;101691.25;;;-0.44;97.67
42385;BME280;28042;43.986;22.860;2023-03-13T00:34:23;101740.56;;;-0.19;97.45
42385;BME280;28042;43.986;22.860;2023-03-13T00:36:52;101763.53;;;-0.15;97.77
42385;BME280;28042;43.986;22.860;2023-03-13T00:39:17;101765.66;;;-0.20;97.96
42385;BME280;28042;43.986;22.860;2023-03-13T00:41:43;101773.09;;;-0.11;98.45
42385;BME280;28042;43.986;22.860;2023-03-13T00:44:08;101697.06;;;-0.50;98.41
42385;BME280;28042;43.986;22.860;2023-03-13T00:46:34;101707.28;;;-0.42;98.51
42385;BME280;28042;43.986;22.860;2023-03-13T00:49:00;101758.34;;;-0.18;97.89
42385;BME280;28042;43.986;22.860;2023-03-13T00:51:27;101675.44;;;-0.61;97.65
42385;BME280;28042;43.986;22.860;2023-03-13T00:53:56;101744.59;;;-0.26;97.12
42385;BME280;28042;43.986;22.860;2023-03-13T00:56:25;101705.00;;;-0.48;97.66
42385;BME280;28042;43.986;22.860;2023-03-13T00:58:51;101747.97;;;-0.23;97.78
42385;BME280;28042;43.986;22.860;2023-03-13T01:01:27;101750.84;;;-0.26;97.65
42385;BME280;28042;43.986;22.860;2023-03-13T01:03:56;101766.47;;;-0.33;98.28
42385;BME280;28042;43.986;22.860;2023-03-13T01:06:24;101679.44;;;-0.81;98.96
42385;BME280;28042;43.986;22.860;2023-03-13T01:08:50;101739.25;;;-0.53;nan
42385;BME280;28042;43.986;22.860;2023-03-13T01:11:20;101741.28;;;-0.57;99.07
42385;BME280;28042;43.986;22.860;2023-03-13T01:13:47;101749.34;;;-0.57;99.44
42385;BME280;28042;43.986;22.860;2023-03-13T01:16:15;101746.06;;;-0.62;99.75
42385;BME280;28042;43.986;22.860;2023-03-13T01:18:43;101748.56;;;-0.59;99.97
42385;BME280;28042;43.986;22.860;2023-03-13T01:21:09;101685.63;;;-0.93;99.75
42385;BME280;28042;43.986;22.860;2023-03-13T01:23:35;101752.22;;;-0.60;100.00
42385;BME280;28042;43.986;22.860;2023-03-13T01:26:00;101690.97;;;-0.93;100.00
42385;BME280;28042;43.986;22.860;2023-03-13T01:28:28;101669.41;;;-1.19;100.00
42385;BME280;28042;43.986;22.860;2023-03-13T01:30:53;101674.09;;;-1.22;100.00
42385;BME280;28042;43.986;22.860;2023-03-13T01:33:19;101735.75;;;-0.95;100.00
42385;BME280;28042;43.986;22.860;2023-03-13T01:35:44;101667.44;;;-1.29;100.00
42385;BME280;28042;43.986;22.860;2023-03-13T01:38:10;101723.59;;;-1.01;100.00
42385;BME280;28042;43.986;22.860;2023-03-13T01:40:45;101742.63;;;-0.91;100.00
42385;BME280;28042;43.986;22.860;2023-03-13T01:43:20;101748.81;;;-0.91;100.00
42385;BME280;28042;43.986;22.860;2023-03-13T01:48:34;101768.53;;;-0.92;100.00
42385;BME280;28042;43.986;22.860;2023-03-13T01:51:02;101748.09;;;-1.07;100.00
42385;BME280;28042;43.986;22.860;2023-03-13T01:53:31;101695.38;;;-1.48;100.00
42385;BME280;28042;43.986;22.860;2023-03-13T01:55:58;101690.00;;;-1.48;100.00
42385;BME280;28042;43.986;22.860;2023-03-13T01:58:27;101704.63;;;-1.39;100.00
42385;BME280;28042;43.986;22.860;2023-03-13T02:00:53;101759.56;;;-1.19;100.00
42385;BME280;28042;43.986;22.860;2023-03-13T02:03:19;101688.28;;;-1.63;100.00
42385;BME280;28042;43.986;22.860;2023-03-13T02:05:47;101691.31;;;-1.69;100.00
42385;BME280;28042;43.986;22.860;2023-03-13T02:08:20;101754.59;;;-1.25;100.00
42385;BME280;28042;43.986;22.860;2023-03-13T02:11:03;101769.50;;;-1.07;100.00
42385;BME280;28042;43.986;22.860;2023-03-13T02:13:30;101774.47;;;-1.01;100.00
42385;BME280;28042;43.986;22.860;2023-03-13T02:15:57;101709.66;;;-1.49;100.00
42385;BME280;28042;43.986;22.860;2023-03-13T02:18:23;101698.22;;;-1.65;100.00
42385;BME280;28042;43.986;22.860;2023-03-13T02:20:55;101776.78;;;-1.09;100.00
42385;BME280;28042;43.986;22.860;2023-03-13T02:23:35;101703.66;;;-1.52;100.00
42385;BME280;28042;43.986;22.860;2023-03-13T02:26:03;101694.66;;;-1.65;100.00
42385;BME280;28042;43.986;22.860;2023-03-13T02:28:32;101775.81;;;-1.22;100.00
42385;BME280;28042;43.986;22.860;2023-03-13T02:30:59;101718.47;;;-1.61;100.00
42385;BME280;28042;43.986;22.860;2023-03-13T02:33:27;101731.09;;;-1.63;100.00
42385;BME280;28042;43.986;22.860;2023-03-13T02:35:54;101813.97;;;-1.19;100.00
42385;BME280;28042;43.986;22.860;2023-03-13T02:38:24;101820.19;;;-1.18;100.00
42385;BME280;28042;43.986;22.860;2023-03-13T02:40:52;101835.19;;;-1.16;100.00
42385;BME280;28042;43.986;22.860;2023-03-13T02:43:31;101841.78;;;-1.07;100.00
42385;BME280;28042;43.986;22.860;2023-03-13T02:46:15;101771.19;;;-1.49;100.00
42385;BME280;28042;43.986;22.860;2023-03-13T02:48:53;101785.75;;;-1.38;100.00
42385;BME280;28042;43.986;22.860;2023-03-13T02:51:27;101858.03;;;-0.96;100.00
42385;BME280;28042;43.986;22.860;2023-03-13T02:53:56;101842.75;;;-1.08;100.00
42385;BME280;28042;43.986;22.860;2023-03-13T02:56:24;101782.88;;;-1.50;100.00
42385;BME280;28042;43.986;22.860;2023-03-13T02:58:51;101839.03;;;-1.20;100.00
42385;BME280;28042;43.986;22.860;2023-03-13T03:01:16;101821.13;;;-1.33;100.00
42385;BME280;28042;43.986;22.860;2023-03-13T03:03:42;101899.00;;;-0.94;100.00
42385;BME280;28042;43.986;22.860;2023-03-13T03:06:07;101830.09;;;-1.34;100.00
42385;BME280;28042;43.986;22.860;2023-03-13T03:08:33;101863.03;;;-1.04;100.00
42385;BME280;28042;43.986;22.860;2023-03-13T03:10:59;101907.63;;;-0.74;100.00
42385;BME280;28042;43.986;22.860;2023-03-13T03:13:26;101876.31;;;-0.88;100.00
42385;BME280;28042;43.986;22.860;2023-03-13T03:15:52;101828.59;;;-1.10;100.00
42385;BME280;28042;43.986;22.860;2023-03-13T03:18:17;101889.81;;;-0.75;100.00
42385;BME280;28042;43.986;22.860;2023-03-13T03:20:43;101834.81;;;-1.09;100.00
42385;BME280;28042;43.986;22.860;2023-03-13T03:23:08;101922.75;;;-0.59;100.00
42385;BME280;28042;43.986;22.860;2023-03-13T03:25:33;101921.03;;;-0.60;100.00
42385;BME280;28042;43.986;22.860;2023-03-13T03:27:59;101923.13;;;-0.65;99.98
42385;BME280;28042;43.986;22.860;2023-03-13T03:30:24;101917.75;;;-0.79;100.00
42385;BME280;28042;43.986;22.860;2023-03-13T03:32:50;101905.50;;;-0.83;100.00
42385;BME280;28042;43.986;22.860;2023-03-13T03:35:15;101926.84;;;-0.82;100.00
42385;BME280;28042;43.986;22.860;2023-03-13T03:37:41;101927.50;;;-0.93;100.00
42385;BME280;28042;43.986;22.860;2023-03-13T03:40:07;101874.22;;;-1.11;100.00
42385;BME280;28042;43.986;22.860;2023-03-13T03:42:33;101927.22;;;-0.74;100.00
42385;BME280;28042;43.986;22.860;2023-03-13T03:44:59;101905.13;;;-0.77;99.67
42385;BME280;28042;43.986;22.860;2023-03-13T03:47:24;101894.31;;;-0.90;99.77
42385;BME280;28042;43.986;22.860;2023-03-13T03:49:50;101851.44;;;-1.19;99.97
42385;BME280;28042;43.986;22.860;2023-03-13T03:52:15;101848.88;;;-1.20;100.00
42385;BME280;28042;43.986;22.860;2023-03-13T03:54:41;101938.44;;;-0.67;100.00
42385;BME280;28042;43.986;22.860;2023-03-13T03:57:07;101922.53;;;-0.84;100.00
42385;BME280;28042;43.986;22.860;2023-03-13T03:59:33;101953.72;;;-0.83;100.00
42385;BME280;28042;43.986;22.860;2023-03-13T04:01:58;101965.16;;;-0.96;100.00
42385;BME280;28042;43.986;22.860;2023-03-13T04:04:24;101890.69;;;-1.33;100.00
42385;BME280;28042;43.986;22.860;2023-03-13T04:06:50;101975.69;;;-0.93;100.00
42385;BME280;28042;43.986;22.860;2023-03-13T04:09:15;101980.31;;;-0.95;100.00
42385;BME280;28042;43.986;22.860;2023-03-13T04:11:41;101979.34;;;-0.94;100.00
42385;BME280;28042;43.986;22.860;2023-03-13T04:14:06;101967.63;;;-1.07;100.00
42385;BME280;28042;43.986;22.860;2023-03-13T04:16:32;101975.75;;;-1.08;100.00
42385;BME280;28042;43.986;22.860;2023-03-13T04:18:57;101909.03;;;-1.42;100.00
42385;BME280;28042;43.986;22.860;2023-03-13T04:21:23;101986.41;;;-0.93;100.00
42385;BME280;28042;43.986;22.860;2023-03-13T04:23:48;101983.13;;;-0.98;100.00
42385;BME280;28042;43.986;22.860;2023-03-13T04:26:13;101914.88;;;-1.35;100.00
42385;BME280;28042;43.986;22.860;2023-03-13T04:28:39;101983.19;;;-0.83;100.00
42385;BME280;28042;43.986;22.860;2023-03-13T04:31:04;101987.78;;;-0.86;100.00
42385;BME280;28042;43.986;22.860;2023-03-13T04:33:30;101922.16;;;-1.23;100.00
42385;BME280;28042;43.986;22.860;2023-03-13T04:35:55;101903.13;;;-1.32;100.00
42385;BME280;28042;43.986;22.860;2023-03-13T04:38:21;101980.88;;;-0.90;100.00
42385;BME280;28042;43.986;22.860;2023-03-13T04:40:46;101904.22;;;-1.21;100.00
42385;BME280;28042;43.986;22.860;2023-03-13T04:43:12;101839.03;;;-1.64;100.00
42385;BME280;28042;43.986;22.860;2023-03-13T04:45:38;101898.72;;;-1.33;100.00
42385;BME280;28042;43.986;22.860;2023-03-13T04:48:03;101889.63;;;-1.45;100.00
42385;BME280;28042;43.986;22.860;2023-03-13T04:50:29;101950.19;;;-1.14;100.00
42385;BME280;28042;43.986;22.860;2023-03-13T04:52:54;101959.88;;;-1.11;100.00
42385;BME280;28042;43.986;22.860;2023-03-13T04:55:20;101907.31;;;-1.43;100.00
42385;BME280;28042;43.986;22.860;2023-03-13T04:57:45;101903.25;;;-1.50;100.00
42385;BME280;28042;43.986;22.860;2023-03-13T05:00:11;101950.41;;;-1.17;100.00
42385;BME280;28042;43.986;22.860;2023-03-13T05:02:37;101975.75;;;-1.08;100.00
42385;BME280;28042;43.986;22.860;2023-03-13T05:05:02;101950.50;;;-1.19;100.00
42385;BME280;28042;43.986;22.860;2023-03-13T05:07:28;101975.69;;;-0.93;100.00
42385;BME280;28042;43.986;22.860;2023-03-13T05:09:53;101985.41;;;-0.76;100.00
42385;BME280;28042;43.986;22.860;2023-03-13T05:12:19;101903.00;;;-1.01;100.00
42385;BME280;28042;43.986;22.860;2023-03-13T05:14:44;101978.25;;;-0.47;100.00
42385;BME280;28042;43.986;22.860;2023-03-13T05:17:10;101974.72;;;-0.33;100.00
42385;BME280;28042;43.986;22.860;2023-03-13T05:19:38;101926.19;;;-0.43;100.00
42385;BME280;28042;43.986;22.860;2023-03-13T05:22:04;101913.72;;;-0.30;98.89
42385;BME280;28042;43.986;22.860;2023-03-13T05:24:29;101939.22;;;0.05;97.68
42385;BME280;28042;43.986;22.860;2023-03-13T05:26:55;101969.38;;;0.49;96.00
42385;BME280;28042;43.986;22.860;2023-03-13T05:29:20;101959.16;;;0.81;93.62
42385;BME280;28042;43.986;22.860;2023-03-13T05:31:45;101902.19;;;0.76;91.94
42385;BME280;28042;43.986;22.860;2023-03-13T05:34:11;101892.78;;;1.09;89.87
42385;BME280;28042;43.986;22.860;2023-03-13T05:36:36;101897.38;;;1.58;87.74
42385;BME280;28042;43.986;22.860;2023-03-13T05:39:02;101902.44;;;2.23;83.54
42385;BME280;28042;43.986;22.860;2023-03-13T05:41:28;101947.78;;;2.88;80.36
42385;BME280;28042;43.986;22.860;2023-03-13T05:43:53;101954.00;;;3.24;76.50
42385;BME280;28042;43.986;22.860;2023-03-13T05:46:18;101935.53;;;3.53;74.15
42385;BME280;28042;43.986;22.860;2023-03-13T05:48:44;101933.19;;;3.71;72.49
42385;BME280;28042;43.986;22.860;2023-03-13T05:51:11;101936.13;;;3.90;70.62
42385;BME280;28042;43.986;22.860;2023-03-13T05:53:36;101969.22;;;4.37;69.02
42385;BME280;28042;43.986;22.860;2023-03-13T05:56:02;101896.28;;;4.37;67.17
42385;BME280;28042;43.986;22.860;2023-03-13T05:58:28;101892.97;;;4.65;65.53
42385;BME280;28042;43.986;22.860;2023-03-13T06:00:53;101975.09;;;5.06;63.88
42385;BME280;28042;43.986;22.860;2023-03-13T06:03:19;101977.25;;;5.12;64.02
42385;BME280;28042;43.986;22.860;2023-03-13T06:05:44;101960.44;;;5.29;62.16
42385;BME280;28042;43.986;22.860;2023-03-13T06:08:09;101966.38;;;5.65;61.31
42385;BME280;28042;43.986;22.860;2023-03-13T06:10:35;101969.09;;;5.95;61.03
42385;BME280;28042;43.986;22.860;2023-03-13T06:13:00;101958.78;;;6.30;59.30
42385;BME280;28042;43.986;22.860;2023-03-13T06:15:26;101916.88;;;5.84;58.25
42385;BME280;28042;43.986;22.860;2023-03-13T06:17:51;101908.53;;;5.66;59.08
42385;BME280;28042;43.986;22.860;2023-03-13T06:20:17;101962.75;;;5.34;59.68
42385;BME280;28042;43.986;22.860;2023-03-13T06:22:43;101960.84;;;5.04;62.56
42385;BME280;28042;43.986;22.860;2023-03-13T06:25:09;101956.59;;;4.69;62.53
42385;BME280;28042;43.986;22.860;2023-03-13T06:27:34;101888.72;;;4.19;63.07
42385;BME280;28042;43.986;22.860;2023-03-13T06:30:00;101934.59;;;4.31;65.49
42385;BME280;28042;43.986;22.860;2023-03-13T06:32:27;101963.00;;;4.03;64.43
42385;BME280;28042;43.986;22.860;2023-03-13T06:34:52;101905.00;;;3.63;65.49
42385;BME280;28042;43.986;22.860;2023-03-13T06:37:18;101966.16;;;4.08;66.36
42385;BME280;28042;43.986;22.860;2023-03-13T06:39:43;101965.41;;;4.17;65.91
42385;BME280;28042;43.986;22.860;2023-03-13T06:42:09;101982.25;;;4.20;66.42
42385;BME280;28042;43.986;22.860;2023-03-13T06:44:35;101973.88;;;4.23;66.20
42385;BME280;28042;43.986;22.860;2023-03-13T06:47:00;101979.31;;;4.12;65.78
42385;BME280;28042;43.986;22.860;2023-03-13T06:49:26;101990.72;;;4.05;66.81
42385;BME280;28042;43.986;22.860;2023-03-13T06:51:51;101988.28;;;4.13;66.06
42385;BME280;28042;43.986;22.860;2023-03-13T06:54:17;101940.78;;;3.99;65.61
42385;BME280;28042;43.986;22.860;2023-03-13T06:56:42;101951.47;;;4.12;65.21
42385;BME280;28042;43.986;22.860;2023-03-13T06:59:09;102002.91;;;4.65;64.42
42385;BME280;28042;43.986;22.860;2023-03-13T07:01:34;101998.31;;;4.76;63.98
42385;BME280;28042;43.986;22.860;2023-03-13T07:04:00;101999.31;;;4.75;63.39
42385;BME280;28042;43.986;22.860;2023-03-13T07:06:26;101944.50;;;4.41;62.42
42385;BME280;28042;43.986;22.860;2023-03-13T07:08:51;102013.53;;;4.89;62.15
42385;BME280;28042;43.986;22.860;2023-03-13T07:11:17;102003.44;;;4.91;61.54
42385;BME280;28042;43.986;22.860;2023-03-13T07:13:42;101975.63;;;4.68;62.34
42385;BME280;28042;43.986;22.860;2023-03-13T07:16:10;102020.59;;;5.01;62.71
42385;BME280;28042;43.986;22.860;2023-03-13T07:18:37;102028.91;;;5.09;63.00
42385;BME280;28042;43.986;22.860;2023-03-13T07:21:04;101982.56;;;4.81;62.72
42385;BME280;28042;43.986;22.860;2023-03-13T07:23:30;102024.97;;;5.13;64.38
42385;BME280;28042;43.986;22.860;2023-03-13T07:26:04;102032.69;;;5.18;66.10
42385;BME280;28042;43.986;22.860;2023-03-13T07:28:30;102031.81;;;5.49;65.88
42385;BME280;28042;43.986;22.860;2023-03-13T07:31:07;102027.84;;;5.74;65.15
42385;BME280;28042;43.986;22.860;2023-03-13T07:33:34;102027.69;;;5.76;65.02
42385;BME280;28042;43.986;22.860;2023-03-13T07:36:00;101954.03;;;5.51;63.71
42385;BME280;28042;43.986;22.860;2023-03-13T07:38:25;102028.75;;;6.15;63.85
42385;BME280;28042;43.986;22.860;2023-03-13T07:40:53;102022.44;;;6.35;62.33
42385;BME280;28042;43.986;22.860;2023-03-13T07:43:20;102025.91;;;6.57;61.19
42385;BME280;28042;43.986;22.860;2023-03-13T07:45:58;102031.00;;;6.40;60.58
42385;BME280;28042;43.986;22.860;2023-03-13T07:48:28;102016.94;;;6.66;60.21
42385;BME280;28042;43.986;22.860;2023-03-13T07:50:54;101967.72;;;6.61;58.39
42385;BME280;28042;43.986;22.860;2023-03-13T07:53:20;102022.66;;;7.21;57.81
42385;BME280;28042;43.986;22.860;2023-03-13T07:55:53;102019.78;;;7.61;57.30
42385;BME280;28042;43.986;22.860;2023-03-13T07:58:20;101996.06;;;7.53;53.03
42385;BME280;28042;43.986;22.860;2023-03-13T08:00:46;101964.22;;;7.36;50.99
42385;BME280;28042;43.986;22.860;2023-03-13T08:03:11;101999.34;;;7.67;49.31
42385;BME280;28042;43.986;22.860;2023-03-13T08:05:37;102012.03;;;7.76;49.33
42385;BME280;28042;43.986;22.860;2023-03-13T08:08:02;102016.81;;;8.01;50.19
42385;BME280;28042;43.986;22.860;2023-03-13T08:10:29;101935.50;;;7.80;50.33
42385;BME280;28042;43.986;22.860;2023-03-13T08:12:55;102008.66;;;8.38;49.40
42385;BME280;28042;43.986;22.860;2023-03-13T08:15:20;101939.63;;;7.94;49.98
42385;BME280;28042;43.986;22.860;2023-03-13T08:17:50;101995.41;;;8.26;50.59
42385;BME280;28042;43.986;22.860;2023-03-13T08:20:16;102011.16;;;8.49;49.40
42385;BME280;28042;43.986;22.860;2023-03-13T08:22:45;102019.00;;;8.35;49.50
42385;BME280;28042;43.986;22.860;2023-03-13T08:25:12;102010.06;;;8.33;50.22
42385;BME280;28042;43.986;22.860;2023-03-13T08:27:38;101941.72;;;8.28;48.85
42385;BME280;28042;43.986;22.860;2023-03-13T08:30:04;101986.50;;;8.78;48.45
42385;BME280;28042;43.986;22.860;2023-03-13T08:32:34;101953.47;;;8.73;47.19
42385;BME280;28042;43.986;22.860;2023-03-13T08:35:00;101937.66;;;8.77;47.03
42385;BME280;28042;43.986;22.860;2023-03-13T08:37:25;101972.47;;;9.27;46.32
42385;BME280;28042;43.986;22.860;2023-03-13T08:39:50;101990.59;;;9.18;47.24
42385;BME280;28042;43.986;22.860;2023-03-13T08:42:18;101982.84;;;9.23;46.45
42385;BME280;28042;43.986;22.860;2023-03-13T08:44:43;101990.13;;;9.41;46.70
42385;BME280;28042;43.986;22.860;2023-03-13T08:47:09;101924.38;;;9.35;45.92
42385;BME280;28042;43.986;22.860;2023-03-13T08:49:35;101957.31;;;9.76;46.10
42385;BME280;28042;43.986;22.860;2023-03-13T08:52:00;101917.38;;;9.59;45.55
42385;BME280;28042;43.986;22.860;2023-03-13T08:54:27;101956.44;;;10.02;43.59
42385;BME280;28042;43.986;22.860;2023-03-13T08:56:53;101901.63;;;9.79;44.65
42385;BME280;28042;43.986;22.860;2023-03-13T08:59:18;101951.50;;;10.05;45.68
42385;BME280;28042;43.986;22.860;2023-03-13T09:01:44;101943.06;;;9.82;46.49
42385;BME280;28042;43.986;22.860;2023-03-13T09:04:09;101910.84;;;9.52;44.94
42385;BME280;28042;43.986;22.860;2023-03-13T09:06:37;101948.56;;;9.90;45.45
42385;BME280;28042;43.986;22.860;2023-03-13T09:09:04;101928.75;;;9.88;45.42
42385;BME280;28042;43.986;22.860;2023-03-13T09:11:29;101949.91;;;9.95;44.32
42385;BME280;28042;43.986;22.860;2023-03-13T09:13:55;101878.84;;;9.54;44.38
42385;BME280;28042;43.986;22.860;2023-03-13T09:16:25;101938.38;;;10.01;44.22
42385;BME280;28042;43.986;22.860;2023-03-13T09:18:52;101928.25;;;9.85;44.06
42385;BME280;28042;43.986;22.860;2023-03-13T09:21:19;101866.38;;;9.77;44.61
42385;BME280;28042;43.986;22.860;2023-03-13T09:23:45;101923.13;;;10.24;43.60
42385;BME280;28042;43.986;22.860;2023-03-13T09:26:12;101936.50;;;10.35;41.56
42385;BME280;28042;43.986;22.860;2023-03-13T09:28:38;101875.25;;;9.79;43.00
42385;BME280;28042;43.986;22.860;2023-03-13T09:31:32;101919.78;;;10.38;41.86
42385;BME280;28042;43.986;22.860;2023-03-13T09:33:58;101923.22;;;10.48;41.63
42385;BME280;28042;43.986;22.860;2023-03-13T09:36:25;101867.19;;;10.12;41.94
42385;BME280;28042;43.986;22.860;2023-03-13T09:38:56;101860.16;;;9.93;41.17
42385;BME280;28042;43.986;22.860;2023-03-13T09:41:31;101914.00;;;10.07;41.18
42385;BME280;28042;43.986;22.860;2023-03-13T09:51:59;101893.53;;;10.45;41.90
42385;BME280;28042;43.986;22.860;2023-03-13T09:54:30;101822.09;;;10.26;40.89
42385;BME280;28042;43.986;22.860;2023-03-13T10:02:27;101894.28;;;10.96;40.36
42385;BME280;28042;43.986;22.860;2023-03-13T10:07:27;101881.28;;;11.07;39.23
42385;BME280;28042;43.986;22.860;2023-03-13T10:09:52;101882.63;;;11.19;40.07
42385;BME280;28042;43.986;22.860;2023-03-13T10:12:20;101828.56;;;10.98;39.75
42385;BME280;28042;43.986;22.860;2023-03-13T10:20:24;101862.16;;;11.23;39.12
42385;BME280;28042;43.986;22.860;2023-03-13T10:23:04;101864.53;;;11.26;39.85
42385;BME280;28042;43.986;22.860;2023-03-13T10:25:36;101878.16;;;11.34;40.03
42385;BME280;28042;43.986;22.860;2023-03-13T10:28:03;101811.34;;;10.81;40.10
42385;BME280;28042;43.986;22.860;2023-03-13T10:30:33;101815.94;;;10.97;40.45
42385;BME280;28042;43.986;22.860;2023-03-13T10:33:23;101843.06;;;11.15;40.01
42385;BME280;28042;43.986;22.860;2023-03-13T10:36:08;101862.47;;;11.28;40.43
42385;BME280;28042;43.986;22.860;2023-03-13T10:38:53;101858.88;;;11.36;40.16
42385;BME280;28042;43.986;22.860;2023-03-13T10:41:23;101859.34;;;11.55;40.94
42385;BME280;28042;43.986;22.860;2023-03-13T10:43:51;101858.28;;;11.65;40.39
42385;BME280;28042;43.986;22.860;2023-03-13T10:46:34;101858.97;;;11.67;39.55
42385;BME280;28042;43.986;22.860;2023-03-13T10:49:02;101858.38;;;11.32;39.32
42385;BME280;28042;43.986;22.860;2023-03-13T10:51:37;101839.22;;;11.48;39.39
42385;BME280;28042;43.986;22.860;2023-03-13T10:56:41;101779.25;;;10.91;40.10
42385;BME280;28042;43.986;22.860;2023-03-13T10:59:22;101846.44;;;11.25;39.51
42385;BME280;28042;43.986;22.860;2023-03-13T11:01:49;101797.97;;;11.19;40.23
42385;BME280;28042;43.986;22.860;2023-03-13T11:04:32;101840.56;;;11.44;39.47
42385;BME280;28042;43.986;22.860;2023-03-13T11:07:04;101836.53;;;11.32;39.01
42385;BME280;28042;43.986;22.860;2023-03-13T11:09:30;101834.31;;;11.19;39.74
42385;BME280;28042;43.986;22.860;2023-03-13T11:12:04;101830.16;;;11.48;39.52
42385;BME280;28042;43.986;22.860;2023-03-13T11:14:31;101786.94;;;11.51;39.61
42385;BME280;28042;43.986;22.860;2023-03-13T11:17:10;101814.81;;;11.78;38.87
42385;BME280;28042;43.986;22.860;2023-03-13T11:20:24;101808.53;;;11.69;38.84
42385;BME280;28042;43.986;22.860;2023-03-13T11:34:14;101787.34;;;11.71;37.60
42385;BME280;28042;43.986;22.860;2023-03-13T11:37:11;101724.13;;;11.43;37.76
42385;BME280;28042;43.986;22.860;2023-03-13T11:39:58;101773.44;;;11.89;38.41
42385;BME280;28042;43.986;22.860;2023-03-13T11:42:42;101768.00;;;11.81;37.43
42385;BME280;28042;43.986;22.860;2023-03-13T11:45:49;101764.63;;;12.25;39.08
42385;BME280;28042;43.986;22.860;2023-03-13T11:50:57;101703.56;;;11.86;37.10
42385;BME280;28042;43.986;22.860;2023-03-13T11:56:16;101749.25;;;12.24;38.55
42385;BME280;28042;43.986;22.860;2023-03-13T12:01:31;101684.72;;;12.14;37.67
42385;BME280;28042;43.986;22.860;2023-03-13T12:06:36;101667.78;;;11.96;38.30
42385;BME280;28042;43.986;22.860;2023-03-13T12:09:25;101718.06;;;12.33;37.49
42385;BME280;28042;43.986;22.860;2023-03-13T12:12:00;101719.09;;;12.32;37.62
42385;BME280;28042;43.986;22.860;2023-03-13T12:14:45;101727.13;;;12.33;37.49
42385;BME280;28042;43.986;22.860;2023-03-13T12:20:04;101707.75;;;12.58;37.62
42385;BME280;28042;43.986;22.860;2023-03-13T12:22:37;101711.06;;;12.53;37.48
42385;BME280;28042;43.986;22.860;2023-03-13T12:25:14;101654.16;;;12.11;36.63
42385;BME280;28042;43.986;22.860;2023-03-13T12:27:50;101707.56;;;12.59;36.82
42385;BME280;28042;43.986;22.860;2023-03-13T12:30:35;101661.22;;;12.43;36.54
42385;BME280;28042;43.986;22.860;2023-03-13T12:33:33;101705.50;;;12.76;36.39
42385;BME280;28042;43.986;22.860;2023-03-13T12:36:03;101697.47;;;12.74;37.33
42385;BME280;28042;43.986;22.860;2023-03-13T12:43:36;101640.75;;;12.01;37.05
42385;BME280;28042;43.986;22.860;2023-03-13T13:00:24;101640.47;;;12.63;37.32
42385;BME280;28042;43.986;22.860;2023-03-13T13:05:32;101627.97;;;11.71;37.42
42385;BME280;28042;43.986;22.860;2023-03-13T13:07:58;101674.53;;;12.08;38.07
42385;BME280;28042;43.986;22.860;2023-03-13T13:10:26;101684.09;;;12.27;38.17
42385;BME280;28042;43.986;22.860;2023-03-13T13:15:36;101656.63;;;12.21;38.09
42385;BME280;28042;43.986;22.860;2023-03-13T13:28:49;101658.13;;;12.61;37.46
42385;BME280;28042;43.986;22.860;2023-03-13T13:36:57;101618.53;;;12.49;37.54
42385;BME280;28042;43.986;22.860;2023-03-13T13:39:39;101667.81;;;12.34;37.06
42385;BME280;28042;43.986;22.860;2023-03-13T13:45:19;101605.75;;;11.74;37.98
42385;BME280;28042;43.986;22.860;2023-03-13T13:47:47;101640.22;;;12.21;37.39
42385;BME280;28042;43.986;22.860;2023-03-13T13:50:19;101648.16;;;11.93;37.48
42385;BME280;28042;43.986;22.860;2023-03-13T13:52:48;101638.84;;;12.02;37.76
42385;BME280;28042;43.986;22.860;2023-03-13T13:58:04;101645.31;;;11.86;37.10
42385;BME280;28042;43.986;22.860;2023-03-13T14:00:39;101614.38;;;11.85;37.75
42385;BME280;28042;43.986;22.860;2023-03-13T14:03:29;101644.53;;;12.15;37.61
42385;BME280;28042;43.986;22.860;2023-03-13T14:06:01;101620.41;;;12.19;37.26
42385;BME280;28042;43.986;22.860;2023-03-13T14:08:32;101631.09;;;12.28;37.07
42385;BME280;28042;43.986;22.860;2023-03-13T14:13:43;101647.78;;;12.19;36.98
42385;BME280;28042;43.986;22.860;2023-03-13T14:16:25;101596.41;;;12.06;36.23
42385;BME280;28042;43.986;22.860;2023-03-13T14:18:51;101600.91;;;11.84;36.43
42385;BME280;28042;43.986;22.860;2023-03-13T14:21:22;101643.47;;;12.01;36.82
42385;BME280;28042;43.986;22.860;2023-03-13T14:23:48;101642.06;;;12.05;36.03
42385;BME280;28042;43.986;22.860;2023-03-13T14:26:19;101634.31;;;11.94;37.17
42385;BME280;28042;43.986;22.860;2023-03-13T14:28:47;101631.19;;;11.74;37.21